createdAt,value
2023-08-13T00:01:45.229Z,22.37
2023-08-13T00:12:09.988Z,23.16
2023-08-13T00:22:34.342Z,24.57
2023-08-13T00:32:58.614Z,23.87
2023-08-13T00:43:22.871Z,23.63
2023-08-13T00:53:47.837Z,24.28
2023-08-13T01:04:12.853Z,23.23
2023-08-13T01:14:57.227Z,24.24
2023-08-13T01:25:24.608Z,22.87
2023-08-13T01:35:49.209Z,23.61
2023-08-13T01:46:14.100Z,24.56
2023-08-13T01:56:38.001Z,22.96
2023-08-13T02:07:02.178Z,23.61
2023-08-13T02:17:26.893Z,24.01
2023-08-13T02:27:52.459Z,23.93
2023-08-13T02:38:16.465Z,24.86
2023-08-13T02:48:41.134Z,23.26
2023-08-13T02:59:05.161Z,23.83
2023-08-13T03:09:29.015Z,24.92
2023-08-13T03:19:53.476Z,23.38
2023-08-13T03:30:18.297Z,24.34
2023-08-13T03:40:42.880Z,24.95
2023-08-13T03:51:07.755Z,25.09
2023-08-13T04:01:31.644Z,22.95
2023-08-13T04:11:56.217Z,23.45
2023-08-13T04:22:22.318Z,24.84
2023-08-13T04:32:55.430Z,24.98
2023-08-13T04:43:21.092Z,24.91
2023-08-13T04:53:46.534Z,24.92
2023-08-13T05:04:10.597Z,25.00
2023-08-13T05:14:35.083Z,25.13
2023-08-13T05:24:59.864Z,25.27
2023-08-13T05:35:24.912Z,25.41
2023-08-13T05:45:49.780Z,25.64
2023-08-13T05:56:14.955Z,25.62
2023-08-13T06:06:38.912Z,25.52
2023-08-13T06:17:13.926Z,25.77
2023-08-13T06:27:39.682Z,26.26
2023-08-13T06:38:04.200Z,26.43
2023-08-13T06:48:29.672Z,26.51
2023-08-13T06:58:57.018Z,26.56
2023-08-13T07:09:21.562Z,26.71
2023-08-13T07:19:47.595Z,26.92
2023-08-13T07:30:16.829Z,26.20
2023-08-13T07:40:41.319Z,26.17
2023-08-13T07:51:05.689Z,27.33
2023-08-13T08:01:30.678Z,26.01
2023-08-13T08:11:57.670Z,25.75
2023-08-13T08:22:21.852Z,27.68
2023-08-13T08:32:46.711Z,27.35
2023-08-13T08:43:13.945Z,26.01
2023-08-13T08:53:39.790Z,25.48
2023-08-13T09:04:04.785Z,25.47
2023-08-13T09:14:28.755Z,25.69
2023-08-13T09:24:55.351Z,25.57
2023-08-13T09:35:19.648Z,25.98
2023-08-13T09:45:45.424Z,26.10
2023-08-13T09:56:16.445Z,26.01
2023-08-13T10:06:44.577Z,26.26
2023-08-13T10:17:10.222Z,26.61
2023-08-13T10:27:40.066Z,27.03
2023-08-13T10:38:12.853Z,27.14
2023-08-13T10:48:39.368Z,27.49
2023-08-13T10:59:03.894Z,27.73
2023-08-13T11:09:28.193Z,28.17
2023-08-13T11:19:57.119Z,28.38
2023-08-13T11:30:21.387Z,28.51
2023-08-13T11:40:46.580Z,28.77
2023-08-13T11:51:21.315Z,29.22
2023-08-13T12:01:58.035Z,29.68
2023-08-13T12:12:25.833Z,29.77
2023-08-13T12:22:53.373Z,30.13
2023-08-13T12:33:18.500Z,30.44
2023-08-13T12:43:42.898Z,30.03
2023-08-13T12:54:06.968Z,29.91
2023-08-13T13:04:31.393Z,29.80
2023-08-13T13:14:56.977Z,29.65
2023-08-13T13:25:21.094Z,29.70
2023-08-13T13:35:45.676Z,29.51
2023-08-13T13:46:10.469Z,29.32
2023-08-13T13:56:34.756Z,29.40
2023-08-13T14:07:00.073Z,29.65
2023-08-13T14:17:25.238Z,29.95
2023-08-13T14:27:49.539Z,30.53
2023-08-13T14:38:14.033Z,30.73
2023-08-13T14:48:38.532Z,30.89
2023-08-13T14:59:04.298Z,30.83
2023-08-13T15:09:28.317Z,30.62
2023-08-13T15:19:52.919Z,30.32
2023-08-13T15:30:17.336Z,29.93
2023-08-13T15:40:41.917Z,30.06
2023-08-13T15:51:06.496Z,29.86
2023-08-13T16:01:31.078Z,29.09
2023-08-13T16:12:08.604Z,28.76
2023-08-13T16:22:37.643Z,28.51
2023-08-13T16:33:03.076Z,28.26
2023-08-13T16:43:28.962Z,28.12
2023-08-13T16:53:53.782Z,27.89
2023-08-13T17:04:17.933Z,27.74
2023-08-13T17:14:42.351Z,27.62
2023-08-13T17:25:07.104Z,27.53
2023-08-13T17:35:31.159Z,27.37
2023-08-13T17:45:55.966Z,27.07
2023-08-13T17:56:21.697Z,26.70
2023-08-13T18:06:48.453Z,26.75
2023-08-13T18:17:14.764Z,26.72
2023-08-13T18:27:42.591Z,26.54
2023-08-13T18:38:08.428Z,26.44
2023-08-13T18:48:33.196Z,26.32
2023-08-13T18:58:57.481Z,26.14
2023-08-13T19:09:23.921Z,25.95
2023-08-13T19:19:48.121Z,25.74
2023-08-13T19:30:13.151Z,25.51
2023-08-13T19:40:40.528Z,25.28
2023-08-13T19:51:04.785Z,25.07
2023-08-13T20:01:47.859Z,24.85
2023-08-13T20:12:14.357Z,24.69
2023-08-13T20:22:51.048Z,24.52
2023-08-13T20:33:27.203Z,24.34
2023-08-13T20:43:51.792Z,24.16
2023-08-13T20:54:17.846Z,23.97
2023-08-13T21:04:42.483Z,25.34
2023-08-13T21:15:07.163Z,26.82
2023-08-13T21:25:31.349Z,27.30
2023-08-13T21:35:55.825Z,26.53
2023-08-13T21:46:19.938Z,24.92
2023-08-13T21:56:44.234Z,24.17
2023-08-13T22:07:08.805Z,23.70
2023-08-13T22:17:32.797Z,23.39
2023-08-13T22:27:56.979Z,24.90
2023-08-13T22:38:22.029Z,26.66
2023-08-13T22:48:45.554Z,26.27
2023-08-13T22:59:10.211Z,24.50
2023-08-13T23:09:34.584Z,23.53
2023-08-13T23:19:58.453Z,22.98
2023-08-13T23:30:22.623Z,24.33
2023-08-13T23:40:47.225Z,26.07
2023-08-13T23:51:11.418Z,26.70
